createdAt,value
2018-09-17T00:00:16.984Z,61.10
2018-09-17T00:02:49.452Z,61.20
2018-09-17T00:05:19.703Z,61.20
2018-09-17T00:07:49.661Z,61.20
2018-09-17T00:10:18.993Z,61.30
2018-09-17T00:12:50.709Z,61.50
2018-09-17T00:15:21.197Z,61.50
2018-09-17T00:17:50.709Z,61.50
2018-09-17T00:20:21.054Z,61.80
2018-09-17T00:22:50.281Z,62.20
2018-09-17T00:25:20.900Z,62.10
2018-09-17T00:27:50.472Z,62.10
2018-09-17T00:30:19.595Z,62.50
2018-09-17T00:32:49.886Z,62.60
2018-09-17T00:35:19.104Z,62.80
2018-09-17T00:37:48.344Z,62.90
2018-09-17T00:40:18.454Z,62.90
2018-09-17T00:42:48.056Z,63.40
2018-09-17T00:45:18.050Z,63.50
2018-09-17T00:47:48.037Z,63.60
2018-09-17T00:50:17.217Z,63.70
2018-09-17T00:52:48.015Z,63.80
2018-09-17T00:55:17.362Z,63.70
2018-09-17T00:57:46.863Z,63.80
2018-09-17T01:00:16.423Z,64.00
2018-09-17T01:02:46.679Z,63.70
2018-09-17T01:05:16.825Z,63.70
2018-09-17T01:07:46.299Z,63.70
2018-09-17T01:10:15.844Z,63.60
2018-09-17T01:12:45.490Z,63.90
2018-09-17T01:15:17.635Z,64.10
2018-09-17T01:17:47.054Z,64.50
2018-09-17T01:20:17.164Z,64.70
2018-09-17T01:22:48.031Z,64.90
2018-09-17T01:25:17.433Z,64.90
2018-09-17T01:27:47.430Z,64.90
2018-09-17T01:30:16.812Z,65.10
2018-09-17T01:32:46.590Z,65.00
2018-09-17T01:35:15.885Z,65.10
2018-09-17T01:37:47.168Z,65.00
2018-09-17T01:40:18.144Z,64.80
2018-09-17T01:42:47.411Z,64.90
2018-09-17T01:45:17.137Z,64.80
2018-09-17T01:47:46.856Z,64.80
2018-09-17T01:50:16.543Z,64.90
2018-09-17T01:52:46.317Z,65.60
2018-09-17T01:55:15.799Z,65.00
2018-09-17T01:57:45.587Z,65.20
2018-09-17T02:00:14.757Z,65.00
2018-09-17T02:02:43.960Z,65.10
2018-09-17T02:05:13.388Z,65.20
2018-09-17T02:07:44.514Z,65.30
2018-09-17T02:10:14.225Z,65.50
2018-09-17T02:12:44.231Z,65.60
2018-09-17T02:15:13.760Z,65.60
2018-09-17T02:17:43.527Z,65.60
2018-09-17T02:20:12.975Z,65.60
2018-09-17T02:22:43.069Z,65.70
2018-09-17T02:25:13.160Z,65.70
2018-09-17T02:27:44.229Z,65.90
2018-09-17T02:30:13.978Z,66.10
2018-09-17T02:32:44.375Z,66.20
2018-09-17T02:35:15.153Z,66.30
2018-09-17T02:37:44.737Z,66.30
2018-09-17T02:40:17.519Z,66.30
2018-09-17T02:42:49.582Z,66.50
2018-09-17T02:45:19.804Z,66.60
2018-09-17T02:47:49.856Z,66.50
2018-09-17T02:50:20.443Z,66.50
2018-09-17T02:52:50.129Z,66.50
2018-09-17T02:55:20.038Z,66.50
2018-09-17T02:57:50.459Z,66.50
2018-09-17T03:00:20.837Z,66.50
2018-09-17T03:02:52.005Z,66.60
2018-09-17T03:05:21.451Z,66.60
2018-09-17T03:07:51.457Z,66.50
2018-09-17T03:10:21.674Z,66.60
2018-09-17T03:12:51.430Z,66.70
2018-09-17T03:15:37.895Z,66.20
2018-09-17T03:18:08.906Z,66.80
2018-09-17T03:20:38.666Z,66.80
2018-09-17T03:23:08.260Z,67.00
2018-09-17T03:25:37.791Z,67.00
2018-09-17T03:28:07.881Z,67.10
2018-09-17T03:30:38.440Z,67.10
2018-09-17T03:33:11.417Z,67.20
2018-09-17T03:35:41.409Z,67.20
2018-09-17T03:38:46.950Z,67.20
2018-09-17T03:41:20.116Z,67.40
2018-09-17T03:43:51.669Z,67.30
2018-09-17T03:46:21.890Z,67.50
2018-09-17T03:48:51.241Z,67.50
2018-09-17T03:51:20.888Z,67.60
2018-09-17T03:53:50.463Z,67.60
2018-09-17T03:56:19.879Z,67.70
2018-09-17T03:58:49.619Z,67.80
2018-09-17T04:01:19.248Z,68.00
2018-09-17T04:03:49.784Z,68.00
2018-09-17T04:06:21.087Z,67.80
2018-09-17T04:08:52.604Z,67.80
2018-09-17T04:11:23.152Z,67.80
2018-09-17T04:13:54.634Z,67.70
2018-09-17T04:16:24.516Z,67.60
2018-09-17T04:18:54.370Z,67.60
2018-09-17T04:21:24.288Z,67.70
2018-09-17T04:23:55.140Z,68.90
2018-09-17T04:26:26.786Z,68.00
2018-09-17T04:28:56.844Z,68.10
2018-09-17T04:31:26.288Z,68.20
2018-09-17T04:33:56.245Z,68.30
2018-09-17T04:36:26.227Z,68.40
2018-09-17T04:38:56.336Z,68.50
2018-09-17T04:41:25.792Z,68.40
2018-09-17T04:43:55.654Z,68.40
2018-09-17T04:46:25.227Z,68.50
2018-09-17T04:48:54.584Z,68.60
2018-09-17T04:51:28.578Z,68.60
2018-09-17T04:53:58.159Z,68.70
2018-09-17T04:56:27.914Z,68.70
2018-09-17T04:58:59.771Z,68.90
2018-09-17T05:01:31.470Z,69.00
2018-09-17T05:04:01.058Z,69.00
2018-09-17T05:06:30.581Z,69.00
2018-09-17T05:08:59.935Z,69.10
2018-09-17T05:11:31.315Z,69.10
2018-09-17T05:14:01.339Z,69.20
2018-09-17T05:16:31.240Z,69.00
2018-09-17T05:19:02.523Z,69.10
2018-09-17T05:21:37.685Z,68.90
2018-09-17T05:24:08.091Z,69.00
2018-09-17T05:26:37.524Z,69.10
2018-09-17T05:29:11.547Z,69.50
2018-09-17T05:31:41.834Z,69.60
2018-09-17T05:34:12.854Z,69.90
2018-09-17T05:36:42.689Z,70.00
2018-09-17T05:39:12.845Z,69.60
2018-09-17T05:41:43.436Z,69.30
2018-09-17T05:44:13.085Z,69.00
2018-09-17T05:46:43.091Z,68.70
2018-09-17T05:49:12.857Z,68.50
2018-09-17T05:51:42.394Z,68.30
2018-09-17T05:54:15.440Z,68.20
2018-09-17T05:56:46.183Z,68.60
2018-09-17T05:59:16.633Z,68.70
2018-09-17T06:01:46.891Z,68.60
2018-09-17T06:04:16.891Z,68.40
2018-09-17T06:06:47.015Z,68.10
2018-09-17T06:09:17.949Z,67.80
2018-09-17T06:11:47.965Z,66.70
2018-09-17T06:14:17.772Z,67.00
2018-09-17T06:16:47.282Z,66.10
2018-09-17T06:19:18.493Z,65.50
2018-09-17T06:21:48.388Z,64.90
2018-09-17T06:24:18.794Z,64.60
2018-09-17T06:26:50.083Z,64.60
2018-09-17T06:29:19.777Z,64.30
2018-09-17T06:31:49.959Z,63.70
2018-09-17T06:34:19.913Z,62.90
2018-09-17T06:36:49.698Z,61.90
2018-09-17T06:39:18.981Z,61.40
2018-09-17T06:41:49.812Z,61.00
2018-09-17T06:44:23.051Z,60.80
2018-09-17T06:46:52.386Z,60.70
2018-09-17T06:49:23.112Z,60.50
2018-09-17T06:51:53.180Z,59.90
2018-09-17T06:54:22.524Z,59.10
2018-09-17T06:56:52.606Z,58.20
2018-09-17T06:59:23.233Z,57.80
2018-09-17T07:01:52.767Z,57.00
2018-09-17T07:04:22.669Z,56.20
2018-09-17T07:06:52.236Z,55.90
2018-09-17T07:09:21.855Z,55.20
2018-09-17T07:11:51.387Z,54.50
2018-09-17T07:14:20.748Z,53.80
2018-09-17T07:16:50.421Z,53.40
2018-09-17T07:19:19.663Z,52.50
2018-09-17T07:21:49.093Z,52.70
2018-09-17T07:24:20.176Z,52.10
2018-09-17T07:26:50.672Z,51.00
2018-09-17T07:29:21.171Z,50.50
2018-09-17T07:31:51.779Z,49.60
2018-09-17T07:34:21.676Z,49.30
2018-09-17T07:36:50.942Z,48.70
2018-09-17T07:39:22.840Z,48.10
2018-09-17T07:41:52.063Z,48.00
2018-09-17T07:44:21.842Z,47.30
2018-09-17T07:46:51.479Z,46.80
2018-09-17T07:49:20.947Z,46.10
2018-09-17T07:51:50.903Z,45.40
2018-09-17T07:54:21.100Z,45.10
2018-09-17T07:56:50.393Z,44.60
2018-09-17T07:59:19.743Z,44.90
2018-09-17T08:01:49.104Z,44.30
2018-09-17T08:04:18.720Z,44.20
2018-09-17T08:06:48.985Z,43.80
2018-09-17T08:09:19.990Z,44.40
2018-09-17T08:11:51.020Z,44.30
2018-09-17T08:14:20.584Z,44.10
2018-09-17T08:16:49.988Z,43.40
2018-09-17T08:19:21.527Z,42.00
2018-09-17T08:21:51.505Z,41.90
2018-09-17T08:24:21.245Z,41.10
2018-09-17T08:26:51.032Z,40.70
2018-09-17T08:29:20.409Z,39.30
2018-09-17T08:31:50.265Z,38.90
2018-09-17T08:34:19.903Z,39.20
2018-09-17T08:36:51.696Z,39.70
2018-09-17T08:39:21.556Z,39.20
2018-09-17T08:41:51.295Z,39.30
2018-09-17T08:44:20.971Z,37.90
2018-09-17T08:46:50.203Z,38.30
2018-09-17T08:49:19.989Z,38.10
2018-09-17T08:51:49.373Z,37.10
2018-09-17T08:54:19.456Z,36.70
2018-09-17T08:56:58.680Z,36.30
2018-09-17T08:59:33.305Z,35.80
2018-09-17T09:02:08.405Z,35.40
2018-09-17T09:04:43.255Z,35.70
2018-09-17T09:07:17.983Z,34.80
2018-09-17T09:09:47.588Z,34.20
2018-09-17T09:12:18.945Z,33.80
2018-09-17T09:14:52.385Z,33.60
2018-09-17T09:17:22.296Z,34.00
2018-09-17T09:19:52.493Z,33.70
2018-09-17T09:22:22.407Z,33.20
2018-09-17T09:24:52.294Z,32.90
2018-09-17T09:27:21.537Z,32.90
2018-09-17T09:29:50.945Z,32.90
2018-09-17T09:32:20.538Z,33.00
2018-09-17T09:34:50.418Z,33.10
2018-09-17T09:37:21.007Z,33.10
2018-09-17T09:39:52.748Z,33.30
2018-09-17T09:42:22.670Z,32.90
2018-09-17T09:44:52.032Z,33.20
2018-09-17T09:47:21.699Z,32.70
2018-09-17T09:49:51.298Z,32.30
2018-09-17T09:52:20.757Z,32.30
2018-09-17T09:54:50.024Z,32.20
2018-09-17T09:57:19.637Z,32.50
2018-09-17T09:59:50.078Z,32.80
2018-09-17T10:02:25.366Z,32.90
2018-09-17T10:04:55.288Z,32.50
2018-09-17T10:07:24.904Z,32.30
2018-09-17T10:09:59.643Z,31.90
2018-09-17T10:12:34.495Z,31.40
2018-09-17T10:15:10.700Z,32.00
2018-09-17T10:17:45.514Z,31.30
2018-09-17T10:20:15.564Z,31.10
2018-09-17T10:22:45.123Z,30.70
2018-09-17T10:25:14.737Z,31.00
2018-09-17T10:27:44.757Z,30.80
2018-09-17T10:30:14.626Z,30.30
2018-09-17T10:32:44.183Z,29.50
2018-09-17T10:35:14.207Z,29.80
2018-09-17T10:37:44.892Z,30.00
2018-09-17T10:40:15.952Z,29.30
2018-09-17T10:42:46.394Z,29.30
2018-09-17T10:45:16.719Z,29.90
2018-09-17T10:47:47.852Z,29.80
2018-09-17T10:50:19.092Z,29.60
2018-09-17T10:52:49.167Z,30.30
2018-09-17T10:55:19.147Z,29.50
2018-09-17T10:57:49.313Z,29.20
2018-09-17T11:02:57.227Z,29.40
2018-09-17T11:05:27.334Z,30.00
2018-09-17T11:07:57.102Z,29.10
2018-09-17T11:10:26.933Z,29.90
2018-09-17T11:12:57.181Z,28.90
2018-09-17T11:15:32.272Z,28.90
2018-09-17T11:18:01.738Z,28.60
2018-09-17T11:20:32.594Z,28.60
2018-09-17T11:23:02.470Z,28.40
2018-09-17T11:25:32.941Z,28.30
2018-09-17T11:28:02.921Z,28.10
2018-09-17T11:30:35.839Z,27.50
2018-09-17T11:33:07.693Z,27.20
2018-09-17T11:35:38.030Z,27.30
2018-09-17T11:38:07.975Z,27.70
2018-09-17T11:40:37.669Z,27.70
2018-09-17T11:43:07.785Z,27.80
2018-09-17T11:45:37.686Z,28.00
2018-09-17T11:48:07.760Z,27.60
2018-09-17T11:50:37.120Z,27.80
2018-09-17T11:53:07.510Z,27.40
2018-09-17T11:55:37.655Z,27.90
2018-09-17T11:58:07.926Z,28.50
2018-09-17T12:00:43.520Z,28.10
2018-09-17T12:03:18.867Z,27.90
2018-09-17T12:05:53.451Z,28.20
2018-09-17T12:08:23.889Z,28.50
2018-09-17T12:10:53.586Z,28.20
2018-09-17T12:13:23.251Z,28.40
2018-09-17T12:15:52.764Z,28.50
2018-09-17T12:18:22.136Z,28.10
2018-09-17T12:20:52.148Z,28.00
2018-09-17T12:23:22.395Z,28.10
2018-09-17T12:25:51.964Z,28.20
2018-09-17T12:28:21.646Z,28.20
2018-09-17T12:30:51.320Z,28.10
2018-09-17T12:33:20.990Z,28.40
2018-09-17T12:35:50.433Z,28.20
2018-09-17T12:38:20.806Z,28.00
2018-09-17T12:40:50.766Z,27.50
2018-09-17T12:43:23.006Z,27.50
2018-09-17T12:45:52.337Z,27.10
2018-09-17T12:48:22.438Z,27.40
2018-09-17T12:50:52.817Z,27.60
2018-09-17T12:53:22.588Z,26.90
2018-09-17T12:55:53.110Z,27.20
2018-09-17T12:58:22.980Z,26.70
2018-09-17T13:00:52.605Z,26.60
2018-09-17T13:03:22.259Z,27.50
2018-09-17T13:05:52.305Z,27.00
2018-09-17T13:08:21.735Z,27.40
2018-09-17T13:10:51.924Z,26.90
2018-09-17T13:13:21.918Z,26.50
2018-09-17T13:15:53.057Z,27.20
2018-09-17T13:18:25.201Z,27.20
2018-09-17T13:20:54.825Z,27.30
2018-09-17T13:23:24.599Z,27.20
2018-09-17T13:25:53.829Z,26.70
2018-09-17T13:28:23.421Z,26.80
2018-09-17T13:30:53.094Z,26.80
2018-09-17T13:33:23.068Z,26.60
2018-09-17T13:35:54.606Z,26.70
2018-09-17T13:38:24.507Z,26.60
2018-09-17T13:40:53.931Z,27.00
2018-09-17T13:43:23.900Z,26.80
2018-09-17T13:45:53.309Z,27.00
2018-09-17T13:48:25.335Z,26.80
2018-09-17T13:50:54.423Z,26.40
2018-09-17T13:53:24.699Z,26.60
2018-09-17T13:55:55.833Z,26.40
2018-09-17T13:58:25.375Z,27.30
2018-09-17T14:00:55.416Z,27.10
2018-09-17T14:03:26.608Z,27.00
2018-09-17T14:05:56.172Z,26.40
2018-09-17T14:08:25.955Z,26.90
2018-09-17T14:10:55.881Z,26.50
2018-09-17T14:13:25.620Z,26.30
2018-09-17T14:16:00.831Z,26.70
2018-09-17T14:18:31.252Z,26.40
2018-09-17T14:21:00.971Z,26.40
2018-09-17T14:23:30.679Z,27.00
2018-09-17T14:26:00.173Z,26.70
2018-09-17T14:28:29.969Z,26.30
2018-09-17T14:30:59.494Z,26.90
2018-09-17T14:33:34.426Z,26.00
2018-09-17T14:36:04.414Z,25.20
2018-09-17T14:38:34.556Z,26.70
2018-09-17T14:41:03.876Z,26.90
2018-09-17T14:43:33.180Z,27.00
2018-09-17T14:46:02.969Z,26.30
2018-09-17T14:48:32.751Z,26.90
2018-09-17T14:51:02.078Z,25.70
2018-09-17T14:53:31.555Z,25.70
2018-09-17T14:56:01.659Z,25.50
2018-09-17T14:58:31.699Z,25.50
2018-09-17T15:01:01.538Z,24.80
2018-09-17T15:03:32.616Z,24.80
2018-09-17T15:06:02.628Z,24.80
2018-09-17T15:08:33.227Z,25.00
2018-09-17T15:11:03.996Z,24.80
2018-09-17T15:13:33.387Z,24.70
2018-09-17T15:16:03.346Z,24.40
2018-09-17T15:18:33.612Z,24.20
2018-09-17T15:21:03.693Z,24.50
2018-09-17T15:23:32.931Z,24.70
2018-09-17T15:26:03.103Z,24.90
2018-09-17T15:28:33.025Z,24.80
2018-09-17T15:31:02.504Z,25.00
2018-09-17T15:33:32.360Z,25.30
2018-09-17T15:36:01.874Z,25.70
2018-09-17T15:38:31.436Z,25.70
2018-09-17T15:41:01.145Z,25.10
2018-09-17T15:43:30.676Z,25.00
2018-09-17T15:45:59.901Z,25.40
2018-09-17T15:48:30.494Z,25.20
2018-09-17T15:51:00.423Z,24.90
2018-09-17T15:53:30.313Z,25.20
2018-09-17T15:56:00.598Z,26.60
2018-09-17T15:58:29.935Z,26.90
2018-09-17T16:00:59.977Z,27.00
2018-09-17T16:03:31.542Z,27.80
2018-09-17T16:06:02.535Z,28.00
2018-09-17T16:08:32.107Z,28.40
2018-09-17T16:11:01.993Z,28.50
2018-09-17T16:13:31.137Z,28.80
2018-09-17T16:16:00.942Z,28.90
2018-09-17T16:18:30.482Z,29.00
2018-09-17T16:21:00.177Z,29.40
2018-09-17T16:23:29.911Z,29.10
2018-09-17T16:25:59.862Z,29.40
2018-09-17T16:28:30.727Z,29.40
2018-09-17T16:31:00.613Z,29.40
2018-09-17T16:33:29.981Z,29.50
2018-09-17T16:35:59.551Z,29.60
2018-09-17T16:38:30.028Z,29.80
2018-09-17T16:40:59.416Z,30.00
2018-09-17T16:43:29.205Z,30.00
2018-09-17T16:46:00.246Z,30.90
2018-09-17T16:48:32.697Z,30.60
2018-09-17T16:51:02.471Z,30.50
2018-09-17T16:53:32.753Z,30.70
2018-09-17T16:56:04.513Z,30.80
2018-09-17T16:58:34.751Z,31.10
2018-09-17T17:01:04.174Z,31.00
2018-09-17T17:03:35.801Z,31.30
2018-09-17T17:06:06.129Z,31.90
2018-09-17T17:08:35.450Z,31.90
2018-09-17T17:11:04.860Z,32.30
2018-09-17T17:13:34.313Z,32.30
2018-09-17T17:16:05.560Z,32.00
2018-09-17T17:18:36.415Z,32.30
2018-09-17T17:21:06.297Z,32.50
2018-09-17T17:23:38.933Z,32.30
2018-09-17T17:26:11.949Z,32.30
2018-09-17T17:28:42.642Z,32.50
2018-09-17T17:31:13.020Z,32.40
2018-09-17T17:33:44.687Z,32.80
2018-09-17T17:36:14.578Z,33.00
2018-09-17T17:38:44.455Z,33.00
2018-09-17T17:41:15.013Z,33.00
2018-09-17T17:43:45.324Z,33.20
2018-09-17T17:46:15.629Z,33.20
2018-09-17T17:48:50.445Z,33.50
2018-09-17T17:51:20.742Z,33.90
2018-09-17T17:53:54.477Z,33.70
2018-09-17T17:56:25.556Z,33.80
2018-09-17T17:58:57.813Z,33.90
2018-09-17T18:01:29.524Z,33.60
2018-09-17T18:04:00.048Z,33.50
2018-09-17T18:06:30.297Z,33.30
2018-09-17T18:09:02.566Z,34.10
2018-09-17T18:11:33.698Z,33.90
2018-09-17T18:14:03.868Z,33.70
2018-09-17T18:16:35.434Z,33.80
2018-09-17T18:19:05.176Z,34.80
2018-09-17T18:21:36.702Z,35.60
2018-09-17T18:24:07.484Z,35.10
2018-09-17T18:26:37.089Z,35.50
2018-09-17T18:29:07.170Z,35.70
2018-09-17T18:31:37.337Z,36.40
2018-09-17T18:34:08.810Z,37.70
2018-09-17T18:36:39.412Z,38.80
2018-09-17T18:39:10.972Z,39.10
2018-09-17T18:41:41.358Z,39.20
2018-09-17T18:44:12.438Z,39.40
2018-09-17T18:46:44.703Z,39.30
2018-09-17T18:49:15.272Z,39.40
2018-09-17T18:51:46.525Z,39.60
2018-09-17T18:54:16.772Z,39.80
2018-09-17T18:56:47.231Z,40.20
2018-09-17T18:59:17.451Z,40.30
2018-09-17T19:01:49.184Z,40.70
2018-09-17T19:04:19.324Z,41.00
2018-09-17T19:06:51.626Z,41.70
2018-09-17T19:09:26.808Z,41.40
2018-09-17T19:16:58.289Z,41.90
2018-09-17T19:19:28.313Z,42.20
2018-09-17T19:22:04.139Z,42.90
2018-09-17T19:24:33.086Z,42.90
2018-09-17T19:27:05.489Z,43.10
2018-09-17T19:29:36.347Z,43.50
2018-09-17T19:32:06.127Z,43.10
2018-09-17T19:34:39.213Z,43.40
2018-09-17T19:37:14.717Z,43.20
2018-09-17T19:39:49.935Z,42.50
2018-09-17T19:42:22.315Z,42.40
2018-09-17T19:44:57.500Z,42.00
2018-09-17T19:47:27.495Z,41.80
2018-09-17T19:49:57.016Z,41.80
2018-09-17T19:52:27.521Z,41.80
2018-09-17T19:54:59.905Z,41.60
2018-09-17T19:57:35.237Z,41.60
2018-09-17T20:00:07.108Z,41.50
2018-09-17T20:02:37.955Z,41.40
2018-09-17T20:05:15.105Z,41.30
2018-09-17T20:07:44.836Z,41.10
2018-09-17T20:10:17.173Z,41.10
2018-09-17T20:12:47.493Z,41.20
2018-09-17T20:15:18.142Z,41.30
2018-09-17T20:17:48.444Z,41.20
2018-09-17T20:20:21.557Z,41.20
2018-09-17T20:22:52.263Z,41.20
2018-09-17T20:25:24.447Z,41.20
2018-09-17T20:27:54.684Z,41.30
2018-09-17T20:30:24.748Z,41.50
2018-09-17T20:32:55.279Z,41.50
2018-09-17T20:35:27.408Z,43.00
2018-09-17T20:37:57.690Z,42.00
2018-09-17T20:40:27.151Z,42.50
2018-09-17T20:42:58.384Z,42.00
2018-09-17T20:45:27.726Z,42.10
2018-09-17T20:47:57.065Z,42.50
2018-09-17T20:50:26.950Z,42.60
2018-09-17T20:52:56.369Z,43.10
2018-09-17T20:55:26.057Z,43.20
2018-09-17T20:57:56.174Z,43.40
2018-09-17T21:00:33.134Z,43.60
2018-09-17T21:03:03.396Z,43.40
2018-09-17T21:05:36.242Z,43.30
2018-09-17T21:08:06.240Z,43.70
2018-09-17T21:10:35.542Z,43.40
2018-09-17T21:13:09.832Z,43.90
2018-09-17T21:15:41.377Z,43.90
2018-09-17T21:18:11.854Z,43.60
2018-09-17T21:20:44.509Z,43.80
2018-09-17T21:23:18.744Z,44.30
2018-09-17T21:25:50.937Z,44.40
2018-09-17T21:28:25.421Z,44.70
2018-09-17T21:30:54.927Z,44.50
2018-09-17T21:33:25.108Z,44.70
2018-09-17T21:36:00.771Z,45.00
2018-09-17T21:38:30.160Z,45.20
2018-09-17T21:41:00.169Z,45.20
2018-09-17T21:43:30.525Z,45.70
2018-09-17T21:46:00.529Z,45.90
2018-09-17T21:48:29.931Z,46.30
2018-09-17T21:50:59.529Z,46.40
2018-09-17T21:53:30.630Z,46.60
2018-09-17T21:56:00.077Z,46.90
2018-09-17T21:58:30.676Z,46.90
2018-09-17T22:01:00.273Z,47.00
2018-09-17T22:03:31.647Z,47.00
2018-09-17T22:06:01.069Z,47.40
2018-09-17T22:08:32.686Z,47.50
2018-09-17T22:11:02.880Z,47.60
2018-09-17T22:13:34.152Z,47.60
2018-09-17T22:16:03.628Z,47.60
2018-09-17T22:18:33.547Z,47.80
2018-09-17T22:21:03.223Z,48.00
2018-09-17T22:23:33.690Z,48.10
2018-09-17T22:26:03.186Z,48.40
2018-09-17T22:28:35.241Z,48.60
2018-09-17T22:31:09.839Z,48.50
2018-09-17T22:33:40.390Z,48.30
2018-09-17T22:36:10.076Z,48.90
2018-09-17T22:38:39.974Z,49.10
2018-09-17T22:41:11.187Z,49.10
2018-09-17T22:43:42.695Z,49.20
2018-09-17T22:46:12.520Z,49.30
2018-09-17T22:48:43.011Z,49.60
2018-09-17T22:51:12.485Z,49.70
2018-09-17T22:53:45.956Z,49.90
2018-09-17T22:56:15.248Z,50.00
2018-09-17T22:58:45.324Z,49.90
2018-09-17T23:01:15.537Z,50.20
2018-09-17T23:03:46.081Z,50.20
2018-09-17T23:06:15.384Z,50.60
2018-09-17T23:08:44.993Z,50.50
2018-09-17T23:11:14.291Z,50.50
2018-09-17T23:13:44.196Z,50.80
2018-09-17T23:16:13.437Z,50.80
2018-09-17T23:18:42.696Z,50.90
2018-09-17T23:21:12.025Z,50.90
2018-09-17T23:23:41.246Z,51.00
2018-09-17T23:26:10.571Z,51.10
2018-09-17T23:28:39.944Z,51.20
2018-09-17T23:31:09.452Z,51.40
2018-09-17T23:33:41.860Z,51.40
2018-09-17T23:36:11.465Z,51.50
2018-09-17T23:38:40.823Z,51.30
2018-09-17T23:41:10.675Z,51.00
2018-09-17T23:43:40.058Z,51.90
2018-09-17T23:46:09.292Z,51.70
2018-09-17T23:48:38.513Z,52.10
2018-09-17T23:51:10.462Z,52.10
2018-09-17T23:53:39.784Z,52.20
2018-09-17T23:56:11.871Z,52.20
2018-09-17T23:58:42.120Z,52.40
